Hillsboro, Missouri
Current Conditions -  °F | °C
As of 11:05 AM on Sunday 23 Nov 2014 (Local Time) from KSUS Reporting Station
Moderate Rain Moderate Rain  
Wind Chill: 55°   Ceiling: 1400
Heat Index: 55°   Visibility: 2mi
Dew Point: 54°   Wind: 7mph
Humidity: 94%   Direction: 120°ESE
Pressure: 29.54"   Gusts: NA
Location:  38.23°N, 90.56°W
Report Text: KSUS 231705Z 12006KT 2SM R08R/2400VP6000FT RA BR FEW008 BKN014 OVC042 13/12 A2954 RMK AO2 P0004
Loading
Personal Weather Stations






























Interactive Weather Map New forecast layout! Learn more

10-Day Weather Forecast

Advertisements
Track Severe Weather on mobile